sensor_id;sensor_type;location;lat;lon;timestamp;temperature;humidity
74869;DHT22;63419;42.262;12.210;2023-01-10T00:01:57;6.90;99.90
74869;DHT22;63419;42.262;12.210;2023-01-10T00:04:25;6.90;99.90
74869;DHT22;63419;42.262;12.210;2023-01-10T00:06:53;6.90;99.90
74869;DHT22;63419;42.262;12.210;2023-01-10T00:09:20;7.00;99.90
74869;DHT22;63419;42.262;12.210;2023-01-10T00:11:47;7.00;99.90
74869;DHT22;63419;42.262;12.210;2023-01-10T00:14:33;7.00;99.90
74869;DHT22;63419;42.262;12.210;2023-01-10T00:17:02;7.10;99.90
74869;DHT22;63419;42.262;12.210;2023-01-10T00:19:30;7.00;99.90
74869;DHT22;63419;42.262;12.210;2023-01-10T00:21:57;7.20;99.90
74869;DHT22;63419;42.262;12.210;2023-01-10T00:24:34;7.10;99.90
74869;DHT22;63419;42.262;12.210;2023-01-10T00:27:02;7.10;99.90
74869;DHT22;63419;42.262;12.210;2023-01-10T00:29:29;7.10;99.90
74869;DHT22;63419;42.262;12.210;2023-01-10T00:31:58;7.00;99.90
74869;DHT22;63419;42.262;12.210;2023-01-10T00:34:25;7.10;99.90
74869;DHT22;63419;42.262;12.210;2023-01-10T00:36:52;7.10;99.90
74869;DHT22;63419;42.262;12.210;2023-01-10T00:39:22;7.10;99.90
74869;DHT22;63419;42.262;12.210;2023-01-10T00:41:53;7.10;99.90
74869;DHT22;63419;42.262;12.210;2023-01-10T00:44:39;7.00;99.90
74869;DHT22;63419;42.262;12.210;2023-01-10T00:47:06;6.90;99.90
74869;DHT22;63419;42.262;12.210;2023-01-10T00:49:36;6.80;99.90
74869;DHT22;63419;42.262;12.210;2023-01-10T00:52:03;6.80;99.90
74869;DHT22;63419;42.262;12.210;2023-01-10T00:54:30;6.70;99.90
74869;DHT22;63419;42.262;12.210;2023-01-10T00:56:58;6.70;99.90
74869;DHT22;63419;42.262;12.210;2023-01-10T00:59:25;6.70;99.90
74869;DHT22;63419;42.262;12.210;2023-01-10T01:01:52;6.70;99.90
74869;DHT22;63419;42.262;12.210;2023-01-10T01:04:20;6.70;99.90
74869;DHT22;63419;42.262;12.210;2023-01-10T01:06:48;6.60;99.90
74869;DHT22;63419;42.262;12.210;2023-01-10T01:09:17;6.50;99.90
74869;DHT22;63419;42.262;12.210;2023-01-10T01:11:44;6.50;99.90
74869;DHT22;63419;42.262;12.210;2023-01-10T01:14:12;6.30;99.90
74869;DHT22;63419;42.262;12.210;2023-01-10T01:16:39;6.20;99.90
74869;DHT22;63419;42.262;12.210;2023-01-10T01:19:06;6.10;99.90
74869;DHT22;63419;42.262;12.210;2023-01-10T01:21:33;6.20;99.90
74869;DHT22;63419;42.262;12.210;2023-01-10T01:24:00;6.30;99.90
74869;DHT22;63419;42.262;12.210;2023-01-10T01:26:28;6.50;99.90
74869;DHT22;63419;42.262;12.210;2023-01-10T01:28:55;7.00;99.90
74869;DHT22;63419;42.262;12.210;2023-01-10T01:31:22;7.20;99.90
74869;DHT22;63419;42.262;12.210;2023-01-10T01:33:50;7.30;99.90
74869;DHT22;63419;42.262;12.210;2023-01-10T01:36:17;7.50;99.90
74869;DHT22;63419;42.262;12.210;2023-01-10T01:38:45;7.50;99.90
74869;DHT22;63419;42.262;12.210;2023-01-10T01:41:13;7.40;99.90
74869;DHT22;63419;42.262;12.210;2023-01-10T01:44:09;7.50;99.90
74869;DHT22;63419;42.262;12.210;2023-01-10T01:46:48;7.50;99.90
74869;DHT22;63419;42.262;12.210;2023-01-10T01:49:22;7.60;99.90
74869;DHT22;63419;42.262;12.210;2023-01-10T01:51:59;7.70;99.90
74869;DHT22;63419;42.262;12.210;2023-01-10T01:54:30;7.70;99.90
74869;DHT22;63419;42.262;12.210;2023-01-10T01:57:09;7.80;99.90
74869;DHT22;63419;42.262;12.210;2023-01-10T01:59:44;7.80;99.90
74869;DHT22;63419;42.262;12.210;2023-01-10T02:02:28;7.40;99.90
74869;DHT22;63419;42.262;12.210;2023-01-10T02:05:35;7.40;99.90
74869;DHT22;63419;42.262;12.210;2023-01-10T02:08:11;7.30;99.90
74869;DHT22;63419;42.262;12.210;2023-01-10T02:11:09;7.20;99.90
74869;DHT22;63419;42.262;12.210;2023-01-10T02:13:39;7.10;99.90
74869;DHT22;63419;42.262;12.210;2023-01-10T02:16:10;7.10;99.90
74869;DHT22;63419;42.262;12.210;2023-01-10T02:18:38;7.00;99.90
74869;DHT22;63419;42.262;12.210;2023-01-10T02:21:42;6.90;99.90
74869;DHT22;63419;42.262;12.210;2023-01-10T02:28:17;6.80;99.90
74869;DHT22;63419;42.262;12.210;2023-01-10T02:34:12;6.80;99.90
74869;DHT22;63419;42.262;12.210;2023-01-10T02:43:11;6.80;99.90
74869;DHT22;63419;42.262;12.210;2023-01-10T02:45:58;6.90;99.90
74869;DHT22;63419;42.262;12.210;2023-01-10T02:48:38;6.90;99.90
74869;DHT22;63419;42.262;12.210;2023-01-10T02:51:23;7.00;99.90
74869;DHT22;63419;42.262;12.210;2023-01-10T02:54:17;7.10;99.90
74869;DHT22;63419;42.262;12.210;2023-01-10T03:02:56;7.20;99.90
74869;DHT22;63419;42.262;12.210;2023-01-10T03:06:07;7.20;99.90
74869;DHT22;63419;42.262;12.210;2023-01-10T03:08:55;7.10;99.90
74869;DHT22;63419;42.262;12.210;2023-01-10T03:11:27;7.30;99.90
74869;DHT22;63419;42.262;12.210;2023-01-10T03:14:17;7.20;99.90
74869;DHT22;63419;42.262;12.210;2023-01-10T03:17:02;7.20;99.90
74869;DHT22;63419;42.262;12.210;2023-01-10T03:19:59;7.10;99.90
74869;DHT22;63419;42.262;12.210;2023-01-10T03:22:35;7.00;99.90
74869;DHT22;63419;42.262;12.210;2023-01-10T03:25:06;6.90;99.90
74869;DHT22;63419;42.262;12.210;2023-01-10T03:27:43;6.80;99.90
74869;DHT22;63419;42.262;12.210;2023-01-10T03:30:48;6.70;99.90
74869;DHT22;63419;42.262;12.210;2023-01-10T03:33:27;6.60;99.90
74869;DHT22;63419;42.262;12.210;2023-01-10T03:36:01;6.60;99.90
74869;DHT22;63419;42.262;12.210;2023-01-10T03:38:53;6.60;99.90
74869;DHT22;63419;42.262;12.210;2023-01-10T03:41:57;6.50;99.90
74869;DHT22;63419;42.262;12.210;2023-01-10T03:44:53;6.60;99.90
74869;DHT22;63419;42.262;12.210;2023-01-10T03:47:40;6.50;99.90
74869;DHT22;63419;42.262;12.210;2023-01-10T03:50:21;6.50;99.90
74869;DHT22;63419;42.262;12.210;2023-01-10T03:52:52;6.50;99.90
74869;DHT22;63419;42.262;12.210;2023-01-10T03:55:27;6.40;99.90
74869;DHT22;63419;42.262;12.210;2023-01-10T03:57:57;6.40;99.90
74869;DHT22;63419;42.262;12.210;2023-01-10T04:00:26;6.30;99.90
74869;DHT22;63419;42.262;12.210;2023-01-10T04:02:56;6.30;99.90
74869;DHT22;63419;42.262;12.210;2023-01-10T04:05:28;6.30;99.90
74869;DHT22;63419;42.262;12.210;2023-01-10T04:10:48;6.20;99.90
74869;DHT22;63419;42.262;12.210;2023-01-10T04:13:15;6.20;99.90
74869;DHT22;63419;42.262;12.210;2023-01-10T04:15:45;6.20;99.90
74869;DHT22;63419;42.262;12.210;2023-01-10T04:18:18;6.10;99.90
74869;DHT22;63419;42.262;12.210;2023-01-10T04:20:50;6.00;99.90
74869;DHT22;63419;42.262;12.210;2023-01-10T04:23:19;6.00;99.90
74869;DHT22;63419;42.262;12.210;2023-01-10T04:25:49;6.00;99.90
74869;DHT22;63419;42.262;12.210;2023-01-10T04:28:17;6.00;99.90
74869;DHT22;63419;42.262;12.210;2023-01-10T04:30:46;5.90;99.90
74869;DHT22;63419;42.262;12.210;2023-01-10T04:33:13;6.00;99.90
74869;DHT22;63419;42.262;12.210;2023-01-10T04:35:50;6.00;99.90
74869;DHT22;63419;42.262;12.210;2023-01-10T04:38:19;6.00;99.90
74869;DHT22;63419;42.262;12.210;2023-01-10T04:40:53;5.90;99.90
74869;DHT22;63419;42.262;12.210;2023-01-10T04:43:24;5.90;99.90
74869;DHT22;63419;42.262;12.210;2023-01-10T04:45:52;5.90;99.90
74869;DHT22;63419;42.262;12.210;2023-01-10T04:48:22;6.00;99.90
74869;DHT22;63419;42.262;12.210;2023-01-10T04:50:51;6.00;99.90
74869;DHT22;63419;42.262;12.210;2023-01-10T04:53:24;6.00;99.90
74869;DHT22;63419;42.262;12.210;2023-01-10T04:56:12;6.10;99.90
74869;DHT22;63419;42.262;12.210;2023-01-10T04:58:53;6.10;99.90
74869;DHT22;63419;42.262;12.210;2023-01-10T05:01:25;6.00;99.90
74869;DHT22;63419;42.262;12.210;2023-01-10T05:03:55;6.10;99.90
74869;DHT22;63419;42.262;12.210;2023-01-10T05:06:31;6.10;99.90
74869;DHT22;63419;42.262;12.210;2023-01-10T05:09:06;6.20;99.90
74869;DHT22;63419;42.262;12.210;2023-01-10T05:11:35;6.10;99.90
74869;DHT22;63419;42.262;12.210;2023-01-10T05:14:05;6.10;99.90
74869;DHT22;63419;42.262;12.210;2023-01-10T05:16:42;6.10;99.90
74869;DHT22;63419;42.262;12.210;2023-01-10T05:19:36;6.20;99.90
74869;DHT22;63419;42.262;12.210;2023-01-10T05:22:05;6.20;99.90
74869;DHT22;63419;42.262;12.210;2023-01-10T05:24:45;6.10;99.90
74869;DHT22;63419;42.262;12.210;2023-01-10T05:27:12;6.10;99.90
74869;DHT22;63419;42.262;12.210;2023-01-10T05:29:41;6.10;99.90
74869;DHT22;63419;42.262;12.210;2023-01-10T05:32:09;6.10;99.90
74869;DHT22;63419;42.262;12.210;2023-01-10T05:34:37;6.10;99.90
74869;DHT22;63419;42.262;12.210;2023-01-10T05:37:08;6.10;99.90
74869;DHT22;63419;42.262;12.210;2023-01-10T05:39:38;6.10;99.90
74869;DHT22;63419;42.262;12.210;2023-01-10T05:42:09;6.10;99.90
74869;DHT22;63419;42.262;12.210;2023-01-10T05:44:38;6.10;99.90
74869;DHT22;63419;42.262;12.210;2023-01-10T05:47:09;6.00;99.90
74869;DHT22;63419;42.262;12.210;2023-01-10T05:49:39;6.00;99.90
74869;DHT22;63419;42.262;12.210;2023-01-10T05:52:07;6.00;99.90
74869;DHT22;63419;42.262;12.210;2023-01-10T05:54:34;6.10;99.90
74869;DHT22;63419;42.262;12.210;2023-01-10T05:57:02;6.00;99.90
74869;DHT22;63419;42.262;12.210;2023-01-10T05:59:29;5.90;99.90
74869;DHT22;63419;42.262;12.210;2023-01-10T06:02:02;5.80;99.90
74869;DHT22;63419;42.262;12.210;2023-01-10T06:04:29;5.90;99.90
74869;DHT22;63419;42.262;12.210;2023-01-10T06:06:57;5.90;99.90
74869;DHT22;63419;42.262;12.210;2023-01-10T06:09:24;5.90;99.90
74869;DHT22;63419;42.262;12.210;2023-01-10T06:11:52;5.80;99.90
74869;DHT22;63419;42.262;12.210;2023-01-10T06:14:39;5.80;99.90
74869;DHT22;63419;42.262;12.210;2023-01-10T06:17:08;5.80;99.90
74869;DHT22;63419;42.262;12.210;2023-01-10T06:19:37;5.70;99.90
74869;DHT22;63419;42.262;12.210;2023-01-10T06:22:08;5.70;99.90
74869;DHT22;63419;42.262;12.210;2023-01-10T06:24:35;5.60;99.90
74869;DHT22;63419;42.262;12.210;2023-01-10T06:27:03;5.70;99.90
74869;DHT22;63419;42.262;12.210;2023-01-10T06:29:30;5.60;99.90
74869;DHT22;63419;42.262;12.210;2023-01-10T06:31:58;5.60;99.90
74869;DHT22;63419;42.262;12.210;2023-01-10T06:34:26;5.50;99.90
74869;DHT22;63419;42.262;12.210;2023-01-10T06:36:53;5.50;99.90
74869;DHT22;63419;42.262;12.210;2023-01-10T06:39:20;5.60;99.90
74869;DHT22;63419;42.262;12.210;2023-01-10T06:41:50;5.50;99.90
74869;DHT22;63419;42.262;12.210;2023-01-10T06:44:18;5.60;99.90
74869;DHT22;63419;42.262;12.210;2023-01-10T06:46:46;5.50;99.90
74869;DHT22;63419;42.262;12.210;2023-01-10T06:49:14;5.50;99.90
74869;DHT22;63419;42.262;12.210;2023-01-10T06:51:45;5.50;99.90
74869;DHT22;63419;42.262;12.210;2023-01-10T06:54:14;5.60;99.90
74869;DHT22;63419;42.262;12.210;2023-01-10T06:56:41;5.60;99.90
74869;DHT22;63419;42.262;12.210;2023-01-10T06:59:19;5.70;99.90
74869;DHT22;63419;42.262;12.210;2023-01-10T07:01:57;5.70;99.90
74869;DHT22;63419;42.262;12.210;2023-01-10T07:04:28;5.70;99.90
74869;DHT22;63419;42.262;12.210;2023-01-10T07:06:57;5.80;99.90
74869;DHT22;63419;42.262;12.210;2023-01-10T07:09:28;5.80;99.90
74869;DHT22;63419;42.262;12.210;2023-01-10T07:11:57;5.80;99.90
74869;DHT22;63419;42.262;12.210;2023-01-10T07:14:30;5.90;99.90
74869;DHT22;63419;42.262;12.210;2023-01-10T07:16:59;5.90;99.90
74869;DHT22;63419;42.262;12.210;2023-01-10T07:19:27;5.90;99.90
74869;DHT22;63419;42.262;12.210;2023-01-10T07:21:56;6.00;99.90
74869;DHT22;63419;42.262;12.210;2023-01-10T07:24:26;6.00;99.90
74869;DHT22;63419;42.262;12.210;2023-01-10T07:26:56;6.00;99.90
74869;DHT22;63419;42.262;12.210;2023-01-10T07:29:24;6.00;99.90
74869;DHT22;63419;42.262;12.210;2023-01-10T07:31:59;6.10;99.90
74869;DHT22;63419;42.262;12.210;2023-01-10T07:34:28;6.30;99.90
74869;DHT22;63419;42.262;12.210;2023-01-10T07:36:57;6.30;99.90
74869;DHT22;63419;42.262;12.210;2023-01-10T07:39:30;6.40;99.90
74869;DHT22;63419;42.262;12.210;2023-01-10T07:42:01;6.50;99.90
74869;DHT22;63419;42.262;12.210;2023-01-10T07:44:28;6.60;99.90
74869;DHT22;63419;42.262;12.210;2023-01-10T07:46:55;6.70;99.90
74869;DHT22;63419;42.262;12.210;2023-01-10T07:49:23;6.60;99.90
74869;DHT22;63419;42.262;12.210;2023-01-10T07:51:54;6.70;99.90
74869;DHT22;63419;42.262;12.210;2023-01-10T07:54:31;6.70;99.90
74869;DHT22;63419;42.262;12.210;2023-01-10T07:57:00;6.80;99.90
74869;DHT22;63419;42.262;12.210;2023-01-10T07:59:42;7.00;99.90
74869;DHT22;63419;42.262;12.210;2023-01-10T08:02:11;7.00;99.90
74869;DHT22;63419;42.262;12.210;2023-01-10T08:04:39;7.10;99.90
74869;DHT22;63419;42.262;12.210;2023-01-10T08:07:14;7.10;99.90
74869;DHT22;63419;42.262;12.210;2023-01-10T08:09:52;7.30;99.90
74869;DHT22;63419;42.262;12.210;2023-01-10T08:12:21;7.30;99.90
74869;DHT22;63419;42.262;12.210;2023-01-10T08:14:51;7.40;99.90
74869;DHT22;63419;42.262;12.210;2023-01-10T08:17:19;7.40;99.90
74869;DHT22;63419;42.262;12.210;2023-01-10T08:19:46;7.50;99.90
74869;DHT22;63419;42.262;12.210;2023-01-10T08:22:14;7.60;99.90
74869;DHT22;63419;42.262;12.210;2023-01-10T08:24:45;7.70;99.90
74869;DHT22;63419;42.262;12.210;2023-01-10T08:27:13;7.80;99.90
74869;DHT22;63419;42.262;12.210;2023-01-10T08:30:04;7.90;99.90
74869;DHT22;63419;42.262;12.210;2023-01-10T08:32:33;7.90;99.90
74869;DHT22;63419;42.262;12.210;2023-01-10T08:35:00;8.00;99.90
74869;DHT22;63419;42.262;12.210;2023-01-10T08:37:27;8.00;99.90
74869;DHT22;63419;42.262;12.210;2023-01-10T08:39:55;8.10;99.90
74869;DHT22;63419;42.262;12.210;2023-01-10T08:42:23;8.30;99.90
74869;DHT22;63419;42.262;12.210;2023-01-10T08:44:52;8.30;99.90
74869;DHT22;63419;42.262;12.210;2023-01-10T08:47:21;8.40;99.90
74869;DHT22;63419;42.262;12.210;2023-01-10T08:49:48;8.50;99.90
74869;DHT22;63419;42.262;12.210;2023-01-10T08:52:28;8.50;99.90
74869;DHT22;63419;42.262;12.210;2023-01-10T08:54:57;8.60;99.90
74869;DHT22;63419;42.262;12.210;2023-01-10T08:57:46;8.70;99.90
74869;DHT22;63419;42.262;12.210;2023-01-10T09:00:23;8.80;99.90
74869;DHT22;63419;42.262;12.210;2023-01-10T09:02:50;8.80;99.90
74869;DHT22;63419;42.262;12.210;2023-01-10T09:05:17;8.90;99.90
74869;DHT22;63419;42.262;12.210;2023-01-10T09:08:05;8.90;99.90
74869;DHT22;63419;42.262;12.210;2023-01-10T09:10:39;9.00;99.90
74869;DHT22;63419;42.262;12.210;2023-01-10T09:13:07;9.20;99.90
74869;DHT22;63419;42.262;12.210;2023-01-10T09:15:42;9.20;99.90
74869;DHT22;63419;42.262;12.210;2023-01-10T09:18:13;9.40;99.90
74869;DHT22;63419;42.262;12.210;2023-01-10T09:20:41;9.60;99.90
74869;DHT22;63419;42.262;12.210;2023-01-10T09:23:11;9.60;99.90
74869;DHT22;63419;42.262;12.210;2023-01-10T09:25:54;9.70;99.90
74869;DHT22;63419;42.262;12.210;2023-01-10T09:28:24;9.80;99.90
74869;DHT22;63419;42.262;12.210;2023-01-10T09:30:52;9.80;99.90
74869;DHT22;63419;42.262;12.210;2023-01-10T09:33:19;9.90;99.90
74869;DHT22;63419;42.262;12.210;2023-01-10T09:35:46;10.10;99.90
74869;DHT22;63419;42.262;12.210;2023-01-10T09:38:16;10.30;99.90
74869;DHT22;63419;42.262;12.210;2023-01-10T09:43:53;10.40;99.90
74869;DHT22;63419;42.262;12.210;2023-01-10T09:46:40;10.70;99.90
74869;DHT22;63419;42.262;12.210;2023-01-10T09:52:30;11.00;99.90
74869;DHT22;63419;42.262;12.210;2023-01-10T09:55:26;10.90;99.90
74869;DHT22;63419;42.262;12.210;2023-01-10T09:58:13;11.30;99.90
74869;DHT22;63419;42.262;12.210;2023-01-10T10:00:48;11.30;99.90
74869;DHT22;63419;42.262;12.210;2023-01-10T10:03:30;11.20;99.90
74869;DHT22;63419;42.262;12.210;2023-01-10T10:06:10;11.50;99.90
74869;DHT22;63419;42.262;12.210;2023-01-10T10:08:41;11.60;99.90
74869;DHT22;63419;42.262;12.210;2023-01-10T10:11:30;11.40;99.90
74869;DHT22;63419;42.262;12.210;2023-01-10T10:26:27;11.60;99.90
74869;DHT22;63419;42.262;12.210;2023-01-10T10:32:16;11.70;99.40
74869;DHT22;63419;42.262;12.210;2023-01-10T10:37:37;11.80;96.60
74869;DHT22;63419;42.262;12.210;2023-01-10T10:40:24;12.00;96.80
74869;DHT22;63419;42.262;12.210;2023-01-10T10:43:14;12.20;97.50
74869;DHT22;63419;42.262;12.210;2023-01-10T10:45:54;12.50;97.00
74869;DHT22;63419;42.262;12.210;2023-01-10T10:48:40;12.60;97.10
74869;DHT22;63419;42.262;12.210;2023-01-10T10:51:49;12.30;94.50
74869;DHT22;63419;42.262;12.210;2023-01-10T10:54:18;12.40;97.40
74869;DHT22;63419;42.262;12.210;2023-01-10T10:56:46;12.70;96.40
74869;DHT22;63419;42.262;12.210;2023-01-10T11:02:40;12.50;92.80
74869;DHT22;63419;42.262;12.210;2023-01-10T11:05:22;12.50;93.90
74869;DHT22;63419;42.262;12.210;2023-01-10T11:08:01;13.40;98.40
74869;DHT22;63419;42.262;12.210;2023-01-10T11:10:34;12.80;94.10
74869;DHT22;63419;42.262;12.210;2023-01-10T11:16:03;11.70;94.10
74869;DHT22;63419;42.262;12.210;2023-01-10T11:18:33;11.30;95.00
74869;DHT22;63419;42.262;12.210;2023-01-10T11:21:14;11.60;95.00
74869;DHT22;63419;42.262;12.210;2023-01-10T11:23:54;11.60;96.40
74869;DHT22;63419;42.262;12.210;2023-01-10T11:31:31;12.20;95.90
74869;DHT22;63419;42.262;12.210;2023-01-10T11:34:04;12.20;96.80
74869;DHT22;63419;42.262;12.210;2023-01-10T11:39:20;12.60;96.70
74869;DHT22;63419;42.262;12.210;2023-01-10T11:44:49;12.80;95.20
74869;DHT22;63419;42.262;12.210;2023-01-10T11:47:17;13.00;95.80
74869;DHT22;63419;42.262;12.210;2023-01-10T11:49:48;13.20;96.70
74869;DHT22;63419;42.262;12.210;2023-01-10T11:52:21;13.30;95.90
74869;DHT22;63419;42.262;12.210;2023-01-10T11:54:53;13.30;97.20
74869;DHT22;63419;42.262;12.210;2023-01-10T11:57:27;12.30;97.50
74869;DHT22;63419;42.262;12.210;2023-01-10T12:00:05;13.00;96.00
74869;DHT22;63419;42.262;12.210;2023-01-10T12:02:48;13.00;96.80
74869;DHT22;63419;42.262;12.210;2023-01-10T12:05:21;13.40;95.80
74869;DHT22;63419;42.262;12.210;2023-01-10T12:08:01;13.20;97.70
74869;DHT22;63419;42.262;12.210;2023-01-10T12:10:33;13.10;97.20
74869;DHT22;63419;42.262;12.210;2023-01-10T12:13:14;12.70;98.20
74869;DHT22;63419;42.262;12.210;2023-01-10T12:15:42;12.90;95.60
74869;DHT22;63419;42.262;12.210;2023-01-10T12:18:09;12.70;95.60
74869;DHT22;63419;42.262;12.210;2023-01-10T12:20:50;13.50;94.70
74869;DHT22;63419;42.262;12.210;2023-01-10T12:23:21;13.50;93.80
74869;DHT22;63419;42.262;12.210;2023-01-10T12:25:52;13.60;96.70
74869;DHT22;63419;42.262;12.210;2023-01-10T12:28:38;14.20;95.30
74869;DHT22;63419;42.262;12.210;2023-01-10T12:31:13;14.50;93.40
74869;DHT22;63419;42.262;12.210;2023-01-10T12:33:49;14.60;95.80
74869;DHT22;63419;42.262;12.210;2023-01-10T12:39:14;14.20;95.30
74869;DHT22;63419;42.262;12.210;2023-01-10T12:41:58;13.20;94.80
74869;DHT22;63419;42.262;12.210;2023-01-10T12:47:58;13.50;94.80
74869;DHT22;63419;42.262;12.210;2023-01-10T12:50:56;14.40;94.10
74869;DHT22;63419;42.262;12.210;2023-01-10T12:53:35;14.80;94.10
74869;DHT22;63419;42.262;12.210;2023-01-10T12:56:12;14.40;95.40
74869;DHT22;63419;42.262;12.210;2023-01-10T13:01:16;14.10;94.40
74869;DHT22;63419;42.262;12.210;2023-01-10T13:03:55;13.30;93.70
74869;DHT22;63419;42.262;12.210;2023-01-10T13:06:36;13.40;93.70
74869;DHT22;63419;42.262;12.210;2023-01-10T13:09:17;12.80;93.80
74869;DHT22;63419;42.262;12.210;2023-01-10T13:12:12;12.80;95.00
74869;DHT22;63419;42.262;12.210;2023-01-10T13:20:25;13.40;91.90
74869;DHT22;63419;42.262;12.210;2023-01-10T13:23:22;12.90;93.50
74869;DHT22;63419;42.262;12.210;2023-01-10T13:26:12;13.30;95.60
74869;DHT22;63419;42.262;12.210;2023-01-10T13:28:51;13.50;93.90
74869;DHT22;63419;42.262;12.210;2023-01-10T13:31:32;13.10;93.80
74869;DHT22;63419;42.262;12.210;2023-01-10T13:34:10;12.80;93.00
74869;DHT22;63419;42.262;12.210;2023-01-10T13:36:42;13.50;93.10
74869;DHT22;63419;42.262;12.210;2023-01-10T13:39:30;14.00;93.20
74869;DHT22;63419;42.262;12.210;2023-01-10T14:01:38;14.60;91.40
74869;DHT22;63419;42.262;12.210;2023-01-10T14:04:31;13.50;91.50
74869;DHT22;63419;42.262;12.210;2023-01-10T14:10:04;13.20;92.20
74869;DHT22;63419;42.262;12.210;2023-01-10T14:12:57;13.30;92.90
74869;DHT22;63419;42.262;12.210;2023-01-10T14:15:42;13.80;95.20
74869;DHT22;63419;42.262;12.210;2023-01-10T14:18:24;13.80;93.40
74869;DHT22;63419;42.262;12.210;2023-01-10T14:21:06;13.50;91.70
74869;DHT22;63419;42.262;12.210;2023-01-10T14:23:37;13.00;93.40
74869;DHT22;63419;42.262;12.210;2023-01-10T14:26:17;12.80;93.00
74869;DHT22;63419;42.262;12.210;2023-01-10T14:28:48;13.10;92.40
74869;DHT22;63419;42.262;12.210;2023-01-10T14:31:22;13.00;91.80
74869;DHT22;63419;42.262;12.210;2023-01-10T14:33:52;13.10;92.90
74869;DHT22;63419;42.262;12.210;2023-01-10T14:36:27;13.10;93.20
74869;DHT22;63419;42.262;12.210;2023-01-10T14:39:03;13.20;93.50
74869;DHT22;63419;42.262;12.210;2023-01-10T14:41:41;13.30;93.20
74869;DHT22;63419;42.262;12.210;2023-01-10T14:44:36;13.20;93.20
74869;DHT22;63419;42.262;12.210;2023-01-10T14:47:32;12.90;92.80
74869;DHT22;63419;42.262;12.210;2023-01-10T14:50:01;12.50;93.00
74869;DHT22;63419;42.262;12.210;2023-01-10T14:52:29;12.80;93.30
74869;DHT22;63419;42.262;12.210;2023-01-10T14:55:10;12.40;93.10
74869;DHT22;63419;42.262;12.210;2023-01-10T14:57:38;12.90;92.70
74869;DHT22;63419;42.262;12.210;2023-01-10T15:00:12;12.70;92.90
74869;DHT22;63419;42.262;12.210;2023-01-10T15:02:47;13.00;94.60
74869;DHT22;63419;42.262;12.210;2023-01-10T15:05:24;13.50;93.30
74869;DHT22;63419;42.262;12.210;2023-01-10T15:07:54;12.80;93.30
74869;DHT22;63419;42.262;12.210;2023-01-10T15:10:43;12.60;94.10
74869;DHT22;63419;42.262;12.210;2023-01-10T15:13:14;12.60;95.00
74869;DHT22;63419;42.262;12.210;2023-01-10T15:15:46;12.30;94.90
74869;DHT22;63419;42.262;12.210;2023-01-10T15:18:38;12.10;93.60
74869;DHT22;63419;42.262;12.210;2023-01-10T15:21:13;11.80;94.60
74869;DHT22;63419;42.262;12.210;2023-01-10T15:23:46;11.70;94.00
74869;DHT22;63419;42.262;12.210;2023-01-10T15:26:32;11.70;94.50
74869;DHT22;63419;42.262;12.210;2023-01-10T15:29:11;11.60;94.80
74869;DHT22;63419;42.262;12.210;2023-01-10T15:31:45;11.50;94.50
74869;DHT22;63419;42.262;12.210;2023-01-10T15:34:21;11.40;94.60
74869;DHT22;63419;42.262;12.210;2023-01-10T15:36:59;11.40;94.40
74869;DHT22;63419;42.262;12.210;2023-01-10T15:39:36;11.40;95.10
74869;DHT22;63419;42.262;12.210;2023-01-10T15:42:08;11.10;94.90
74869;DHT22;63419;42.262;12.210;2023-01-10T15:44:42;10.90;95.20
74869;DHT22;63419;42.262;12.210;2023-01-10T15:47:40;10.90;95.60
74869;DHT22;63419;42.262;12.210;2023-01-10T15:50:25;10.90;96.00
74869;DHT22;63419;42.262;12.210;2023-01-10T15:53:00;10.60;95.80
74869;DHT22;63419;42.262;12.210;2023-01-10T15:58:31;10.00;96.60
74869;DHT22;63419;42.262;12.210;2023-01-10T16:01:02;9.70;96.90
74869;DHT22;63419;42.262;12.210;2023-01-10T16:06:04;9.40;97.30
74869;DHT22;63419;42.262;12.210;2023-01-10T16:08:36;9.30;97.60
74869;DHT22;63419;42.262;12.210;2023-01-10T16:11:06;9.30;97.40
74869;DHT22;63419;42.262;12.210;2023-01-10T16:14:03;9.20;97.90
74869;DHT22;63419;42.262;12.210;2023-01-10T16:16:30;9.10;97.90
74869;DHT22;63419;42.262;12.210;2023-01-10T16:18:58;9.00;98.40
74869;DHT22;63419;42.262;12.210;2023-01-10T16:21:35;9.00;98.40
74869;DHT22;63419;42.262;12.210;2023-01-10T16:24:23;8.90;98.30
74869;DHT22;63419;42.262;12.210;2023-01-10T16:26:53;8.80;99.90
74869;DHT22;63419;42.262;12.210;2023-01-10T16:29:22;8.70;99.90
74869;DHT22;63419;42.262;12.210;2023-01-10T16:31:50;8.70;99.90
74869;DHT22;63419;42.262;12.210;2023-01-10T16:34:19;8.70;99.90
74869;DHT22;63419;42.262;12.210;2023-01-10T16:36:47;8.60;99.90
74869;DHT22;63419;42.262;12.210;2023-01-10T16:39:19;8.50;99.90
74869;DHT22;63419;42.262;12.210;2023-01-10T16:41:48;8.40;99.90
74869;DHT22;63419;42.262;12.210;2023-01-10T16:44:34;8.40;99.90
74869;DHT22;63419;42.262;12.210;2023-01-10T16:47:02;8.40;99.90
74869;DHT22;63419;42.262;12.210;2023-01-10T16:49:32;8.50;99.90
74869;DHT22;63419;42.262;12.210;2023-01-10T16:52:00;8.50;99.90
74869;DHT22;63419;42.262;12.210;2023-01-10T16:54:28;8.40;99.90
74869;DHT22;63419;42.262;12.210;2023-01-10T16:56:56;8.30;99.90
74869;DHT22;63419;42.262;12.210;2023-01-10T16:59:24;8.30;99.90
74869;DHT22;63419;42.262;12.210;2023-01-10T17:01:56;8.40;99.50
74869;DHT22;63419;42.262;12.210;2023-01-10T17:04:26;8.50;99.90
74869;DHT22;63419;42.262;12.210;2023-01-10T17:06:57;8.50;99.70
74869;DHT22;63419;42.262;12.210;2023-01-10T17:09:27;8.40;99.90
74869;DHT22;63419;42.262;12.210;2023-01-10T17:12:05;8.30;99.90
74869;DHT22;63419;42.262;12.210;2023-01-10T17:14:38;8.30;99.90
74869;DHT22;63419;42.262;12.210;2023-01-10T17:17:05;8.40;99.90
74869;DHT22;63419;42.262;12.210;2023-01-10T17:19:32;8.40;99.90
74869;DHT22;63419;42.262;12.210;2023-01-10T17:22:00;8.40;99.90
74869;DHT22;63419;42.262;12.210;2023-01-10T17:24:27;8.40;99.90
74869;DHT22;63419;42.262;12.210;2023-01-10T17:26:55;8.40;99.90
74869;DHT22;63419;42.262;12.210;2023-01-10T17:29:22;8.40;99.90
74869;DHT22;63419;42.262;12.210;2023-01-10T17:31:50;8.30;99.90
74869;DHT22;63419;42.262;12.210;2023-01-10T17:34:17;8.30;99.90
74869;DHT22;63419;42.262;12.210;2023-01-10T17:36:45;8.30;99.90
74869;DHT22;63419;42.262;12.210;2023-01-10T17:39:13;8.40;99.90
74869;DHT22;63419;42.262;12.210;2023-01-10T17:41:40;8.30;99.90
74869;DHT22;63419;42.262;12.210;2023-01-10T17:44:07;8.30;99.90
74869;DHT22;63419;42.262;12.210;2023-01-10T17:46:35;8.30;99.90
74869;DHT22;63419;42.262;12.210;2023-01-10T17:49:02;8.30;99.90
74869;DHT22;63419;42.262;12.210;2023-01-10T17:51:29;8.20;99.90
74869;DHT22;63419;42.262;12.210;2023-01-10T17:53:57;8.10;99.90
74869;DHT22;63419;42.262;12.210;2023-01-10T17:56:24;8.20;99.90
74869;DHT22;63419;42.262;12.210;2023-01-10T17:58:51;8.10;99.90